<<    September 2011    >>
Datum    Temp.       Tempmin      Tempmax    Taup.       Taup.min      Taup.max    Feuchte    Feuchtemin    Feuchtemax    Druck    Druckmin    Druckmax    Regen    Wind    Benmax  
  01.09.2011  15,6    9,8    06:26    22,0    16:25  9,0    7,5    20:30    11,8    10:23  67,4    41    16:27    91    07:22  1014,9    1013    17:42    1017    07:42  0,0  1,1  11,5  
  02.09.2011  19,7    12,1    03:31    28,5    15:56  12,0    9,2    00:11    14,5    23:41  63,9    38    17:36    85    03:52  1012,4    1010    17:42    1015    01:57  0,0  0,8  12,6  
  03.09.2011  23,2    16,6    06:58    30,7    15:44  14,9    12,8    18:23    18,1    11:28  63,4    35    16:45    90    07:34  1010,0    1007    16:57    1012    00:00  0,0  0,9  16,9  
  04.09.2011  21,5    18,5    23:59    26,5    12:14  17,6    13,8    00:11    20,5    10:43  79,2    52    12:22    93    07:57  1007,4    1006    06:26    1008    23:59  2,8  1,3  16,9  
  05.09.2011  17,8    14,1    07:45    21,9    14:47  9,1    4,5    17:39    16,7    00:31  58,9    33    16:14    90    00:18  1013,7    1007    00:56    1020    22:11  0,0  2,8  22,7  
  06.09.2011  17,0    14,1    01:18    20,5    14:18  8,0    5,8    00:03    12,3    23:07  56,5    42    14:23    76    22:33  1016,6    1009    23:41    1021    02:11  1,2  3,6  24,5  
  07.09.2011  16,0    13,7    06:27    18,8    15:56  9,8    6,6    16:16    14,6    03:11  68,3    46    16:08    92    02:39  1011,2    1005    03:26    1014    12:41  2,7  4,3  23,8  
  08.09.2011  14,5    12,8    05:17    16,2    15:58  11,7    7,2    00:22    13,7    23:59  84,1    59    00:22    95    06:14  1010,4    1009    05:40    1012    00:00  3,0  2,9  21,2  
  09.09.2011  17,6    14,4    02:37    20,9    13:56  16,2    13,7    00:00    18,2    10:52  91,9    71    14:06    98    01:36  1011,0    1009    04:55    1013    23:55  0,0  0,4  11,9  
  10.09.2011  22,3    16,7    03:08    29,0    16:25  18,0    16,4    02:44    20,1    10:28  79,0    51    16:27    98    00:44  1008,8    1005    16:40    1013    00:00  0,0  1,5  16,9  
  11.09.2011  18,6    15,5    23:55    23,1    00:00  16,7    14,1    10:39    18,4    01:09  89,2    67    10:39    98    12:51  1008,3    1005    00:55    1011    12:24  9,4  1,2  14,4  
  12.09.2011  18,2    13,1    05:03    24,9    15:26  13,0    10,4    16:09    14,8    09:48  74,5    43    15:47    98    03:24  1010,1    1008    15:24    1012    03:54  0,0  3,3  21,2  
  13.09.2011  18,3    15,1    23:49    21,9    15:13  9,8    6,7    15:29    14,1    01:50  58,7    39    14:54    77    03:23  1012,4    1010    00:00    1014    14:39  0,0  3,0  16,9  
  14.09.2011  15,7    12,1    07:28    19,6    14:22  6,7    4,4    12:02    9,1    00:00  56,4    38    14:21    72    07:41  1017,6    1014    00:00    1020    23:59  0,0  2,8  19,1  
  15.09.2011  15,2    11,4    23:59    19,9    15:58  8,7    5,5    18:11    11,8    09:52  67,0    41    18:01    87    08:04  1020,3    1019    00:24    1022    10:54  0,0  0,9  10,1  
  16.09.2011  15,2    8,1    07:09    21,5    14:53  8,9    6,2    06:51    11,6    22:56  68,6    42    14:45    93    08:31  1016,6    1011    19:23    1021    04:53  0,0  1,1  19,1  
  17.09.2011  17,4    13,6    07:32    20,8    15:09  10,0    7,3    19:33    13,2    04:25  63,5    46    17:12    87    07:22  1010,3    1006    23:38    1013    08:23  0,0  1,4  13,7  
  18.09.2011  13,8    12,0    03:53    17,0    16:50  10,1    5,5    17:56    13,9    11:49  80,2    48    17:28    98    03:30  1004,8    1002    07:23    1007    00:00  7,6  1,5  19,1  
  19.09.2011  14,3    11,4    05:51    19,2    15:38  9,8    6,2    18:26    13,9    11:17  76,5    45    16:37    98    06:38  1011,9    1006    00:00    1020    22:37  2,1  2,0  16,6  
  20.09.2011  14,8    10,6    04:43    18,7    13:30  10,2    7,9    04:31    12,9    13:08  74,3    65    23:59    85    05:02  1022,1    1019    00:52    1024    12:22  0,0  0,6  9,7  
  21.09.2011  17,1    15,0    07:19    20,2    15:18  9,7    8,1    18:20    11,5    11:36  62,2    48    17:22    76    08:02  1019,6    1017    16:22    1022    00:00  0,0  0,7  9,4  
  22.09.2011  16,1    12,9    07:59    19,8    15:40  9,1    7,4    17:06    10,7    02:11  64,1    47    17:04    79    23:59  1019,0    1017    02:07    1020    10:52  0,0  2,0  15,5  
  23.09.2011  15,4    11,0    23:59    20,3    15:39  9,1    5,4    17:31    12,4    09:39  68,6    40    15:41    88    08:21  1018,9    1017    15:51    1021    02:21  0,0  0,8  10,1  
  24.09.2011  15,4    9,2    06:15    23,4    16:09  8,7    6,9    02:50    10,7    21:26  67,1    41    16:22    88    06:59  1016,3    1013    16:36    1018    00:00  0,0  0,9  11,9  
  25.09.2011  16,5    10,9    05:22    23,9    16:06  10,7    8,7    04:19    13,4    12:06  71,3    43    16:15    92    08:39  1018,2    1015    00:06    1020    22:51  0,0  0,5  9,4  
  26.09.2011  18,8    13,5    04:55    25,9    15:26  12,1    9,7    19:17    14,8    12:07  67,9    40    16:45    89    05:44  1021,7    1019    01:51    1025    21:35  0,0  1,1  15,5  
  27.09.2011  18,7    15,0    23:59    24,0    15:09  13,6    11,9    00:15    15,4    12:12  73,0    52    16:29    86    07:18  1027,1    1024    00:00    1029    23:59  0,0  1,0  11,5  
  28.09.2011  18,2    11,7    06:57    26,2    15:41  12,9    10,4    06:59    16,6    10:48  74,1    43    16:12    97    09:10  1027,8    1024    17:35    1030    00:35  0,0  0,7  10,8  
  29.09.2011  19,6    14,2    07:32    26,5    15:42  12,1    8,9    17:01    14,8    12:03  65,0    34    16:26    88    07:44  1025,6    1023    18:20    1027    01:50  0,0  0,9  12,2  
  30.09.2011  19,1    12,8    06:58    26,9    15:41  10,3    8,3    15:30    11,9    00:00  59,5    31    15:30    83    07:08  1024,5    1021    17:19    1026    01:05  0,0  1,1  15,1  
 
  Gesamt  17,4  8,1            30,7            11,3  4,4            20,5            69,8  31            98            1015,6  1002            1030            28,6  1,6  24,5  
 
  Mittelwert  17,4  13,1            22,6            11,3  8,6            14,2            69,8  45,3            88,9            1015,6  1012,3            1018,2            1,0  1,6  15,3  
  Minimum  13,8  8,1            16,2            6,7  4,4            9,1            56,4  31,0            72,0            1004,8  1002,0            1007,0            0,0  0,4  9,4  
  Maximum  23,2  18,5            30,7            18,0  16,4            20,5            91,9  71,0            98,0            1027,8  1024,0            1030,0            9,4  4,3  24,5  

  Heie Tage    Tmax >=30C     1  
  Sommertage    Tmax >=25C     8  
  Warme Tage    Tmax >=20C     22  
  Kalte Tage    Tmax  <10C     0  
  Frosttage    Tmin  <0C     0  
  Eistage    Tmax  <0C     0  
  Regentage > 0 mm    7  
  Regentage > 2 mm    6  
  Regentage > 10 mm    0  
  Regentage > 20 mm    0